Barhom II — 5IM534 — position and weather

sailwx.info

Track history (hours):
 
Tides and Currents Weather Stations Pressure Air Temp Water Temp Dewpoint Dewpoint Depression Visibility Wind Speed Wind Dir Waves Ship Positions

Barhom II

Last reported at 2018-Apr-25 19:28 UTC. Time now 2018-Apr-25 19:56 UTC.
Position N 44°20' E 028°41'.

Length 83 m.

Type: Cargo ship. MMSI: 677043400.

Date/timePositionNaut miles runAvg speedWind from/ knotsBaromVisibWave heightAir tempDewpointWater temp
2018-Apr-25 19:28N 44°20' E 028°41'0 0.0
2018-Apr-25 18:58N 44°20' E 028°41'0 0.0
2018-Apr-25 18:28N 44°20' E 028°41'0 0.0
2018-Apr-25 17:58N 44°20' E 028°41'0 0.0
2018-Apr-25 17:28N 44°20' E 028°41'0 0.0
2018-Apr-25 16:58N 44°20' E 028°41'0 0.0
2018-Apr-25 16:31N 44°20' E 028°41'0 0.0
2018-Apr-25 15:58N 44°20' E 028°41'0 0.0
2018-Apr-25 15:25N 44°20' E 028°41'0 0.0
2018-Apr-25 14:58N 44°20' E 028°41'0 0.0
2018-Apr-25 14:28N 44°20' E 028°41'0 0.0
2018-Apr-25 14:01N 44°20' E 028°41'0 0.0
2018-Apr-25 13:28N 44°20' E 028°41'0 0.0
2018-Apr-25 13:01N 44°20' E 028°41'0 0.0
2018-Apr-25 12:31N 44°20' E 028°41'0 0.0
2018-Apr-25 11:52N 44°20' E 028°41'0 0.0
2018-Apr-25 11:31N 44°20' E 028°41'0 0.0
2018-Apr-25 10:58N 44°20' E 028°41'0 0.0
2018-Apr-25 10:28N 44°20' E 028°41'0 0.0
2018-Apr-25 09:58N 44°20' E 028°41'0 0.0
2018-Apr-25 09:25N 44°20' E 028°41'0 0.0
2018-Apr-25 08:58N 44°20' E 028°41'0 0.0
2018-Apr-25 08:28N 44°20' E 028°41'0 0.0
2018-Apr-25 08:01N 44°20' E 028°41'0 0.0
2018-Apr-25 07:25N 44°20' E 028°41'0 0.0
2018-Apr-25 07:01N 44°20' E 028°41'0 0.0
2018-Apr-25 06:31N 44°20' E 028°41'0 0.0
2018-Apr-25 05:59N 44°20' E 028°41'0 0.0
2018-Apr-25 05:31N 44°20' E 028°41'0 0.0
2018-Apr-25 04:58N 44°20' E 028°41'0 0.0
2018-Apr-25 04:28N 44°20' E 028°41'0 0.0
2018-Apr-25 03:58N 44°20' E 028°41'0 0.0
2018-Apr-25 03:28N 44°20' E 028°41'0 0.0
2018-Apr-25 02:58N 44°20' E 028°41'0 0.0
2018-Apr-25 02:28N 44°20' E 028°41'0 0.0
2018-Apr-25 01:58N 44°20' E 028°41'0 0.0
2018-Apr-25 01:31N 44°20' E 028°41'0 0.0
2018-Apr-25 01:01N 44°20' E 028°41'0 0.0
2018-Apr-25 00:28N 44°20' E 028°41'0 0.0
2018-Apr-24 23:58N 44°20' E 028°41'0 0.5
2018-Apr-24 23:31N 44°20' E 028°41'2 3.7
2018-Apr-24 22:58N 44°19' E 028°42'1 1.1
2018-Apr-24 22:28N 44°18' E 028°43'2 3.3
2018-Apr-24 21:58N 44°17' E 028°45'2 4.6
2018-Apr-24 21:31N 44°15' E 028°46'3 6.1
2018-Apr-24 21:01N 44°12' E 028°46'2 3.3
2018-Apr-24 20:28N 44°10' E 028°46'0 0.0
2018-Apr-24 19:58N 44°10' E 028°46'0 0.0
2018-Apr-24 19:28N 44°10' E 028°46'0 0.0
2018-Apr-24 18:58N 44°10' E 028°46'0 0.0
2018-Apr-24 18:28N 44°10' E 028°46'0 0.0
2018-Apr-24 17:58N 44°10' E 028°46'0 0.0
2018-Apr-24 17:28N 44°10' E 028°46'0 0.0
2018-Apr-24 16:58N 44°10' E 028°46'0 0.0
2018-Apr-24 16:28N 44°10' E 028°46'0 0.0
2018-Apr-24 15:58N 44°10' E 028°46'0 0.0
2018-Apr-24 15:28N 44°10' E 028°46'0 0.0
2018-Apr-24 14:58N 44°10' E 028°46'0 0.0
2018-Apr-24 14:25N 44°10' E 028°46'0 0.0
2018-Apr-24 13:58N 44°10' E 028°46'0 0.0
2018-Apr-24 13:31N 44°10' E 028°46'0 0.0
2018-Apr-24 13:01N 44°10' E 028°46'0 0.0
2018-Apr-24 12:31N 44°10' E 028°46'0 0.0
2018-Apr-24 11:55N 44°10' E 028°46'0 0.0
2018-Apr-24 11:28N 44°10' E 028°46'0 0.0
2018-Apr-24 10:58N 44°10' E 028°46'0 0.0
2018-Apr-24 10:25N 44°10' E 028°46'0 0.0
2018-Apr-24 10:01N 44°10' E 028°46'1 2.0
2018-Apr-24 09:30N 44°10' E 028°47'4 8.3
2018-Apr-24 09:00N 44°07' E 028°51'510.7
2018-Apr-24 08:30N 44°01' E 028°53'510.5
2018-Apr-24 08:00N 43°56' E 028°53'510.6
2018-Apr-24 07:30N 43°51' E 028°53'510.7
2018-Apr-24 07:00N 43°45' E 028°53'510.7
2018-Apr-24 06:30N 43°40' E 028°53'510.6
2018-Apr-24 06:00N 43°35' E 028°54'510.5
2018-Apr-24 05:30N 43°30' E 028°55'510.5
2018-Apr-24 05:00N 43°24' E 028°55'510.4
2018-Apr-24 04:30N 43°19' E 028°56'510.3
2018-Apr-24 04:00N 43°14' E 028°57'510.4
2018-Apr-24 03:30N 43°09' E 028°58'510.6
2018-Apr-24 03:00N 43°04' E 028°58'510.7
2018-Apr-24 02:31N 42°58' E 028°59'510.7
2018-Apr-24 02:00N 42°53' E 028°60'510.4
2018-Apr-24 01:30N 42°48' E 029°01'510.1
2018-Apr-24 01:00N 42°43' E 029°02'6 9.8
2018-Apr-24 00:27N 42°37' E 029°03'12 9.9
2018-Apr-23 23:16N 42°26' E 029°04'510.1
2018-Apr-23 22:46N 42°21' E 029°06'410.3
2018-Apr-23 22:21N 42°17' E 029°07'410.2
2018-Apr-23 22:01N 42°13' E 029°08'510.3
2018-Apr-23 21:30N 42°08' E 029°09'510.5
2018-Apr-23 21:00N 42°03' E 029°09'510.7
2018-Apr-23 20:30N 41°58' E 029°10'510.5
2018-Apr-23 20:01N 41°52' E 029°11'54 8.7
2018-Apr-23 13:46N 40°59' E 028°60'162 4.9
2018-Apr-22 04:51N 39°46' E 025°50'  
2018-Apr-17 22:25N 32°22' E 015°13'0 0.0
2018-Apr-17 16:19N 32°22' E 015°13'  
Track history (hours):
 
Tides and Currents Weather Stations Pressure Air Temp Water Temp Dewpoint Dewpoint Depression Visibility Wind Speed Wind Dir Waves Ship Positions

Barhom II

Last reported at 2018-Apr-25 19:28 UTC. Time now 2018-Apr-25 19:56 UTC.
Position N 44°20' E 028°41'.

Length 83 m.

Type: Cargo ship. MMSI: 677043400.

Date/timePositionNaut miles runAvg speedWind from/ knotsBaromVisibWave heightAir tempDewpointWater temp
2018-Apr-25 19:28N 44°20' E 028°41'0 0.0
2018-Apr-25 18:58N 44°20' E 028°41'0 0.0
2018-Apr-25 18:28N 44°20' E 028°41'0 0.0
2018-Apr-25 17:58N 44°20' E 028°41'0 0.0
2018-Apr-25 17:28N 44°20' E 028°41'0 0.0
2018-Apr-25 16:58N 44°20' E 028°41'0 0.0
2018-Apr-25 16:31N 44°20' E 028°41'0 0.0
2018-Apr-25 15:58N 44°20' E 028°41'0 0.0
2018-Apr-25 15:25N 44°20' E 028°41'0 0.0
2018-Apr-25 14:58N 44°20' E 028°41'0 0.0
2018-Apr-25 14:28N 44°20' E 028°41'0 0.0
2018-Apr-25 14:01N 44°20' E 028°41'0 0.0
2018-Apr-25 13:28N 44°20' E 028°41'0 0.0
2018-Apr-25 13:01N 44°20' E 028°41'0 0.0
2018-Apr-25 12:31N 44°20' E 028°41'0 0.0
2018-Apr-25 11:52N 44°20' E 028°41'0 0.0
2018-Apr-25 11:31N 44°20' E 028°41'0 0.0
2018-Apr-25 10:58N 44°20' E 028°41'0 0.0
2018-Apr-25 10:28N 44°20' E 028°41'0 0.0
2018-Apr-25 09:58N 44°20' E 028°41'0 0.0
2018-Apr-25 09:25N 44°20' E 028°41'0 0.0
2018-Apr-25 08:58N 44°20' E 028°41'0 0.0
2018-Apr-25 08:28N 44°20' E 028°41'0 0.0
2018-Apr-25 08:01N 44°20' E 028°41'0 0.0
2018-Apr-25 07:25N 44°20' E 028°41'0 0.0
2018-Apr-25 07:01N 44°20' E 028°41'0 0.0
2018-Apr-25 06:31N 44°20' E 028°41'0 0.0
2018-Apr-25 05:59N 44°20' E 028°41'0 0.0
2018-Apr-25 05:31N 44°20' E 028°41'0 0.0
2018-Apr-25 04:58N 44°20' E 028°41'0 0.0
2018-Apr-25 04:28N 44°20' E 028°41'0 0.0
2018-Apr-25 03:58N 44°20' E 028°41'0 0.0
2018-Apr-25 03:28N 44°20' E 028°41'0 0.0
2018-Apr-25 02:58N 44°20' E 028°41'0 0.0
2018-Apr-25 02:28N 44°20' E 028°41'0 0.0
2018-Apr-25 01:58N 44°20' E 028°41'0 0.0
2018-Apr-25 01:31N 44°20' E 028°41'0 0.0
2018-Apr-25 01:01N 44°20' E 028°41'0 0.0
2018-Apr-25 00:28N 44°20' E 028°41'0 0.0
2018-Apr-24 23:58N 44°20' E 028°41'0 0.5
2018-Apr-24 23:31N 44°20' E 028°41'2 3.7
2018-Apr-24 22:58N 44°19' E 028°42'1 1.1
2018-Apr-24 22:28N 44°18' E 028°43'2 3.3
2018-Apr-24 21:58N 44°17' E 028°45'2 4.6
2018-Apr-24 21:31N 44°15' E 028°46'3 6.1
2018-Apr-24 21:01N 44°12' E 028°46'2 3.3
2018-Apr-24 20:28N 44°10' E 028°46'0 0.0
2018-Apr-24 19:58N 44°10' E 028°46'0 0.0
2018-Apr-24 19:28N 44°10' E 028°46'0 0.0
2018-Apr-24 18:58N 44°10' E 028°46'0 0.0
2018-Apr-24 18:28N 44°10' E 028°46'0 0.0
2018-Apr-24 17:58N 44°10' E 028°46'0 0.0
2018-Apr-24 17:28N 44°10' E 028°46'0 0.0
2018-Apr-24 16:58N 44°10' E 028°46'0 0.0
2018-Apr-24 16:28N 44°10' E 028°46'0 0.0
2018-Apr-24 15:58N 44°10' E 028°46'0 0.0
2018-Apr-24 15:28N 44°10' E 028°46'0 0.0
2018-Apr-24 14:58N 44°10' E 028°46'0 0.0
2018-Apr-24 14:25N 44°10' E 028°46'0 0.0
2018-Apr-24 13:58N 44°10' E 028°46'0 0.0
2018-Apr-24 13:31N 44°10' E 028°46'0 0.0
2018-Apr-24 13:01N 44°10' E 028°46'0 0.0
2018-Apr-24 12:31N 44°10' E 028°46'0 0.0
2018-Apr-24 11:55N 44°10' E 028°46'0 0.0
2018-Apr-24 11:28N 44°10' E 028°46'0 0.0
2018-Apr-24 10:58N 44°10' E 028°46'0 0.0
2018-Apr-24 10:25N 44°10' E 028°46'0 0.0
2018-Apr-24 10:01N 44°10' E 028°46'1 2.0
2018-Apr-24 09:30N 44°10' E 028°47'4 8.3
2018-Apr-24 09:00N 44°07' E 028°51'510.7
2018-Apr-24 08:30N 44°01' E 028°53'510.5
2018-Apr-24 08:00N 43°56' E 028°53'510.6
2018-Apr-24 07:30N 43°51' E 028°53'510.7
2018-Apr-24 07:00N 43°45' E 028°53'510.7
2018-Apr-24 06:30N 43°40' E 028°53'510.6
2018-Apr-24 06:00N 43°35' E 028°54'510.5
2018-Apr-24 05:30N 43°30' E 028°55'510.5
2018-Apr-24 05:00N 43°24' E 028°55'510.4
2018-Apr-24 04:30N 43°19' E 028°56'510.3
2018-Apr-24 04:00N 43°14' E 028°57'510.4
2018-Apr-24 03:30N 43°09' E 028°58'510.6
2018-Apr-24 03:00N 43°04' E 028°58'510.7
2018-Apr-24 02:31N 42°58' E 028°59'510.7
2018-Apr-24 02:00N 42°53' E 028°60'510.4
2018-Apr-24 01:30N 42°48' E 029°01'510.1
2018-Apr-24 01:00N 42°43' E 029°02'6 9.8
2018-Apr-24 00:27N 42°37' E 029°03'12 9.9
2018-Apr-23 23:16N 42°26' E 029°04'510.1
2018-Apr-23 22:46N 42°21' E 029°06'410.3
2018-Apr-23 22:21N 42°17' E 029°07'410.2
2018-Apr-23 22:01N 42°13' E 029°08'510.3
2018-Apr-23 21:30N 42°08' E 029°09'510.5
2018-Apr-23 21:00N 42°03' E 029°09'510.7
2018-Apr-23 20:30N 41°58' E 029°10'510.5
2018-Apr-23 20:01N 41°52' E 029°11'54 8.7
2018-Apr-23 13:46N 40°59' E 028°60'162 4.9
2018-Apr-22 04:51N 39°46' E 025°50'  
2018-Apr-17 22:25N 32°22' E 015°13'0 0.0
2018-Apr-17 16:19N 32°22' E 015°13'  

Dump ship's entire track history